Time;durP1;ratioP1;P1;durP2;ratioP2;P2;SDS_P1;SDS_P2;PMS_P1;PMS_P2;Temp;Humidity;BMP_temperature;BMP_pressure;BME280_temperature;BME280_humidity;BME280_pressure;Samples;Min_cycle;Max_cycle;Signal;HPM_P1;HPM_P2
2022/08/21 00:00:14;;;;;;;1999.90;999.90;;;;;;;20.36;79.45;95485.50;5024171;28;20526;-65
2022/08/21 00:03:09;;;;;;;1999.90;999.90;;;;;;;20.24;79.21;95475.66;5006707;28;20080;-65
2022/08/21 00:05:40;;;;;;;1999.90;999.90;;;;;;;20.04;79.23;95447.09;4999890;28;20038;-64
2022/08/21 00:08:06;;;;;;;1999.90;999.90;;;;;;;20.20;79.23;95485.59;5009514;28;20565;-65
2022/08/21 00:10:32;;;;;;;1999.90;999.90;;;;;;;19.90;78.44;95444.13;5004554;28;20038;-64
2022/08/21 00:12:57;;;;;;;1999.90;999.90;;;;;;;20.13;79.01;95480.06;5008469;28;20111;-68
2022/08/21 00:15:27;;;;;;;1999.90;999.90;;;;;;;19.98;79.16;95478.22;5008021;28;20051;-64
2022/08/21 00:17:54;;;;;;;1999.90;999.90;;;;;;;19.73;79.48;95437.22;5008246;28;20038;-64
2022/08/21 00:20:20;;;;;;;1999.90;999.90;;;;;;;20.03;79.36;95474.47;5006809;28;20026;-65
2022/08/21 00:22:46;;;;;;;1999.90;999.90;;;;;;;19.66;79.55;95429.00;5008808;28;20029;-64
2022/08/21 00:25:14;;;;;;;1999.90;999.90;;;;;;;20.01;79.71;95477.50;5000494;28;20356;-65
2022/08/21 00:27:41;;;;;;;1999.90;999.90;;;;;;;19.87;79.79;95472.63;4991633;28;20450;-65
2022/08/21 00:30:08;;;;;;;1999.90;999.90;;;;;;;19.87;78.95;95477.25;4996158;28;20032;-65
2022/08/21 00:32:36;;;;;;;1999.90;999.90;;;;;;;19.74;79.91;95463.06;4991340;28;20106;-64
2022/08/21 00:35:03;;;;;;;1999.90;999.90;;;;;;;19.59;79.44;95440.41;5024100;28;20026;-65
2022/08/21 00:37:28;;;;;;;1999.90;999.90;;;;;;;19.49;79.85;95447.13;5006813;28;20026;-67
2022/08/21 00:39:54;;;;;;;1999.90;999.90;;;;;;;19.60;79.23;95481.66;5005522;28;20092;-67
2022/08/21 00:42:20;;;;;;;1999.90;999.90;;;;;;;19.26;78.91;95445.47;4996674;28;20030;-64
2022/08/21 00:44:47;;;;;;;1999.90;999.90;;;;;;;19.53;80.04;95476.09;5009046;28;20602;-64
2022/08/21 00:47:13;;;;;;;1999.90;999.90;;;;;;;19.21;79.50;95443.81;5010354;28;20105;-64
2022/08/21 00:49:39;;;;;;;1999.90;999.90;;;;;;;19.49;80.47;95482.19;5011943;28;20578;-64
2022/08/21 00:52:08;;;;;;;1999.90;999.90;;;;;;;19.55;80.10;95474.63;5027561;28;20381;-65
2022/08/21 00:54:36;;;;;;;1999.90;999.90;;;;;;;19.29;80.04;95464.41;5012248;28;20040;-64
2022/08/21 00:57:08;;;;;;;1999.90;999.90;;;;;;;19.20;80.34;95443.03;5011492;28;20022;-65
2022/08/21 00:59:37;;;;;;;1999.90;999.90;;;;;;;19.13;79.65;95450.16;5004912;28;20770;-64
2022/08/21 01:02:04;;;;;;;1999.90;999.90;;;;;;;19.37;80.31;95474.22;5010939;28;20096;-64
2022/08/21 01:04:30;;;;;;;1999.90;999.90;;;;;;;19.21;80.10;95436.50;5009652;28;20021;-64
2022/08/21 01:06:55;;;;;;;1999.90;999.90;;;;;;;19.31;79.85;95437.09;5027651;28;20096;-65
2022/08/21 01:09:21;;;;;;;1999.90;999.90;;;;;;;19.25;79.82;95439.28;5010792;28;20128;-66
2022/08/21 01:11:46;;;;;;;1999.90;999.90;;;;;;;19.31;79.89;95445.19;5012012;28;20033;-64
2022/08/21 01:14:14;;;;;;;1999.90;999.90;;;;;;;19.29;80.00;95444.75;5011140;28;20104;-64
2022/08/21 01:16:44;;;;;;;1999.90;999.90;;;;;;;19.19;79.41;95448.75;5011409;28;20570;-64
2022/08/21 01:19:11;;;;;;;1999.90;999.90;;;;;;;19.12;80.01;95445.91;5010890;28;20021;-64
2022/08/21 01:21:36;;;;;;;1999.90;999.90;;;;;;;19.16;80.28;95457.56;5012067;28;20033;-64
2022/08/21 01:24:02;;;;;;;1999.90;999.90;;;;;;;19.12;79.85;95451.31;5011413;28;20026;-64
2022/08/21 01:26:30;;;;;;;1999.90;999.90;;;;;;;19.23;79.57;95446.94;5012033;28;20026;-64
2022/08/21 01:29:01;;;;;;;1999.90;999.90;;;;;;;18.85;79.01;95420.66;5009386;28;20030;-64
2022/08/21 01:31:28;;;;;;;1999.90;999.90;;;;;;;18.84;80.50;95440.66;5010617;28;20046;-65
2022/08/21 01:33:55;;;;;;;1999.90;999.90;;;;;;;18.53;80.76;95399.09;5010426;28;20666;-65
2022/08/21 01:36:21;;;;;;;1999.90;999.90;;;;;;;18.28;80.57;95425.41;5007355;28;20481;-64
2022/08/21 01:38:47;;;;;;;1999.90;999.90;;;;;;;18.60;81.20;95445.06;5006020;28;20026;-64
2022/08/21 01:41:14;;;;;;;1999.90;999.90;;;;;;;18.62;81.46;95456.25;5011468;28;20482;-64
2022/08/21 01:43:40;;;;;;;1999.90;999.90;;;;;;;18.67;80.64;95439.81;5023694;22;20141;-72
2022/08/21 01:46:05;;;;;;;1999.90;999.90;;;;;;;18.80;80.94;95459.44;4998600;28;20023;-73
2022/08/21 01:48:31;;;;;;;1999.90;999.90;;;;;;;18.84;80.43;95448.75;4984356;28;20034;-73
2022/08/21 01:50:56;;;;;;;1999.90;999.90;;;;;;;18.56;80.17;95457.66;4991630;28;20037;-72
2022/08/21 01:53:22;;;;;;;1999.90;999.90;;;;;;;18.78;80.53;95442.81;5006992;28;20027;-72
2022/08/21 01:55:47;;;;;;;1999.90;999.90;;;;;;;18.91;80.13;95448.91;5006232;28;20116;-72
2022/08/21 01:58:12;;;;;;;1999.90;999.90;;;;;;;18.57;79.73;95437.66;5009781;28;20018;-72
2022/08/21 02:00:38;;;;;;;1999.90;999.90;;;;;;;18.38;80.43;95438.34;4988686;28;20415;-72
2022/08/21 02:03:03;;;;;;;1999.90;999.90;;;;;;;18.44;80.91;95439.66;4994892;28;20033;-74
2022/08/21 02:05:28;;;;;;;1999.90;999.90;;;;;;;18.56;80.39;95444.19;4991275;28;20023;-73
2022/08/21 02:07:55;;;;;;;1999.90;999.90;;;;;;;18.56;80.15;95438.78;4992003;28;20026;-72
2022/08/21 02:10:27;;;;;;;1999.90;999.90;;;;;;;18.46;80.91;95436.59;5002595;28;20058;-72
2022/08/21 02:12:53;;;;;;;1999.90;999.90;;;;;;;18.71;80.72;95429.19;4991118;28;20430;-73
2022/08/21 02:15:19;;;;;;;1999.90;999.90;;;;;;;18.70;80.22;95436.47;4991277;28;20496;-72
2022/08/21 02:17:48;;;;;;;1999.90;999.90;;;;;;;18.43;80.90;95431.94;4999753;28;20030;-72
2022/08/21 02:20:32;;;;;;;1999.90;999.90;;;;;;;18.55;80.16;95434.53;5003897;28;20026;-72
2022/08/21 02:22:58;;;;;;;1999.90;999.90;;;;;;;18.54;80.14;95429.50;4999875;28;20052;-72
2022/08/21 02:25:25;;;;;;;1999.90;999.90;;;;;;;18.59;80.87;95432.72;4990295;28;20031;-72
2022/08/21 02:27:52;;;;;;;1999.90;999.90;;;;;;;18.52;80.45;95423.66;4995864;28;20061;-72
2022/08/21 02:30:22;;;;;;;1999.90;999.90;;;;;;;18.71;80.44;95426.47;5008381;28;20034;-71
2022/08/21 02:32:47;;;;;;;1999.90;999.90;;;;;;;18.65;80.54;95431.31;4999126;28;20065;-73
2022/08/21 02:35:14;;;;;;;1999.90;999.90;;;;;;;18.43;80.89;95430.03;5002838;28;20054;-72
2022/08/21 02:37:48;;;;;;;1999.90;999.90;;;;;;;18.50;80.26;95437.50;5010933;28;20030;-72
2022/08/21 02:40:17;;;;;;;1999.90;999.90;;;;;;;18.63;80.06;95425.50;5009211;28;20034;-72
2022/08/21 02:42:43;;;;;;;1999.90;999.90;;;;;;;18.52;80.49;95405.59;5001115;28;20049;-71
2022/08/21 02:45:09;;;;;;;1999.90;999.90;;;;;;;18.54;80.52;95438.38;4989047;28;20062;-72
2022/08/21 02:47:35;;;;;;;1999.90;999.90;;;;;;;18.51;80.13;95430.97;5002871;28;20034;-72
2022/08/21 02:50:01;;;;;;;1999.90;999.90;;;;;;;18.52;79.81;95423.66;4999737;28;20033;-71
2022/08/21 02:52:26;;;;;;;1999.90;999.90;;;;;;;18.43;81.04;95431.94;5010318;28;20018;-71
2022/08/21 02:54:51;;;;;;;1999.90;999.90;;;;;;;18.53;80.96;95417.94;4997682;28;20034;-71
2022/08/21 02:57:16;;;;;;;1999.90;999.90;;;;;;;18.67;80.56;95426.34;4991253;28;20061;-72
2022/08/21 02:59:42;;;;;;;1999.90;999.90;;;;;;;18.55;80.03;95420.28;5009474;28;20389;-72
2022/08/21 03:02:07;;;;;;;1999.90;999.90;;;;;;;18.51;79.81;95420.19;5005879;28;20073;-71
2022/08/21 03:04:32;;;;;;;1999.90;999.90;;;;;;;18.65;80.42;95425.16;4990257;28;20022;-71
2022/08/21 03:06:58;;;;;;;1999.90;999.90;;;;;;;18.69;80.13;95426.84;5002237;28;20033;-71
2022/08/21 03:09:23;;;;;;;1999.90;999.90;;;;;;;18.56;79.98;95432.63;5008253;28;20104;-70
2022/08/21 03:11:51;;;;;;;1999.90;999.90;;;;;;;18.63;80.46;95420.13;5010204;28;20017;-72
2022/08/21 03:14:17;;;;;;;1999.90;999.90;;;;;;;18.59;80.69;95421.94;4994500;28;20018;-71
2022/08/21 03:16:42;;;;;;;1999.90;999.90;;;;;;;18.57;80.72;95416.09;5008043;28;20025;-71
2022/08/21 03:19:08;;;;;;;1999.90;999.90;;;;;;;18.72;80.53;95440.72;4995915;28;20721;-72
2022/08/21 03:21:33;;;;;;;1999.90;999.90;;;;;;;18.65;80.57;95431.31;5008460;28;20684;-72
2022/08/21 03:23:58;;;;;;;1999.90;999.90;;;;;;;18.63;80.29;95428.19;5006694;28;20116;-72
2022/08/21 03:26:24;;;;;;;1999.90;999.90;;;;;;;18.66;80.08;95427.50;4990549;28;20371;-72
2022/08/21 03:28:50;;;;;;;1999.90;999.90;;;;;;;18.65;80.13;95433.22;4991830;28;20038;-73
2022/08/21 03:31:16;;;;;;;1999.90;999.90;;;;;;;18.53;80.19;95423.34;4997276;28;20510;-71
2022/08/21 03:33:42;;;;;;;1999.90;999.90;;;;;;;18.62;80.13;95420.44;4986932;28;20384;-73
2022/08/21 03:36:08;;;;;;;1999.90;999.90;;;;;;;18.64;80.14;95426.28;5009773;28;20038;-71
2022/08/21 03:38:34;;;;;;;1999.90;999.90;;;;;;;18.61;79.92;95430.44;5010095;28;20029;-73
2022/08/21 03:41:00;;;;;;;1999.90;999.90;;;;;;;18.61;80.13;95430.44;5001763;28;20038;-73
2022/08/21 03:43:26;;;;;;;1999.90;999.90;;;;;;;18.55;80.36;95437.22;4989673;28;20034;-73
2022/08/21 03:45:52;;;;;;;1999.90;999.90;;;;;;;18.47;80.07;95413.16;5003825;28;20113;-73
2022/08/21 03:48:17;;;;;;;1999.90;999.90;;;;;;;18.57;80.21;95432.25;5001810;28;20459;-73
2022/08/21 03:50:46;;;;;;;1999.90;999.90;;;;;;;18.55;80.13;95431.06;4988239;28;20463;-73
2022/08/21 03:53:13;;;;;;;1999.90;999.90;;;;;;;18.55;80.20;95431.06;4989079;28;20022;-72
2022/08/21 03:55:39;;;;;;;1999.90;999.90;;;;;;;18.53;79.77;95433.31;4992489;28;20042;-73
2022/08/21 03:58:05;;;;;;;1999.90;999.90;;;;;;;18.50;80.16;95439.41;5007853;28;20038;-73
2022/08/21 04:00:30;;;;;;;1999.90;999.90;;;;;;;18.53;80.03;95447.59;5007295;28;20109;-72
2022/08/21 04:02:55;;;;;;;1999.90;999.90;;;;;;;18.47;79.88;95445.47;5004381;28;20022;-72
2022/08/21 04:05:26;;;;;;;1999.90;999.90;;;;;;;18.38;79.68;95442.97;4986581;28;20074;-72
2022/08/21 04:07:57;;;;;;;1999.90;999.90;;;;;;;18.44;79.98;95445.03;4990404;28;20026;-72
2022/08/21 04:10:24;;;;;;;1999.90;999.90;;;;;;;18.42;79.94;95446.50;5000016;28;20096;-72
2022/08/21 04:12:50;;;;;;;1999.90;999.90;;;;;;;18.39;79.95;95448.00;5005469;28;20034;-72
2022/08/21 04:15:16;;;;;;;1999.90;999.90;;;;;;;18.29;80.02;95439.66;4994503;28;20018;-72
2022/08/21 04:17:42;;;;;;;1999.90;999.90;;;;;;;18.28;79.38;95436.19;4989865;28;20053;-72
2022/08/21 04:20:08;;;;;;;1999.90;999.90;;;;;;;18.32;80.09;95436.25;5000276;28;20375;-72
2022/08/21 04:22:33;;;;;;;1999.90;999.90;;;;;;;18.32;79.96;95445.09;5013282;28;20026;-72
2022/08/21 04:24:58;;;;;;;1999.90;999.90;;;;;;;18.32;79.91;95441.63;5004081;28;20030;-71
2022/08/21 04:27:23;;;;;;;1999.90;999.90;;;;;;;18.43;80.18;95458.88;4993038;28;20026;-72
2022/08/21 04:29:49;;;;;;;1999.90;999.90;;;;;;;18.29;79.77;95447.72;4993733;28;20118;-72
2022/08/21 04:32:22;;;;;;;1999.90;999.90;;;;;;;18.35;80.04;95451.72;4990697;28;20041;-72
2022/08/21 04:34:47;;;;;;;1999.90;999.90;;;;;;;18.30;79.92;95454.66;4991716;28;20444;-71
2022/08/21 04:37:15;;;;;;;1999.90;999.90;;;;;;;18.35;80.11;95459.81;5009027;28;20104;-72
2022/08/21 04:39:40;;;;;;;1999.90;999.90;;;;;;;18.43;79.98;95464.25;5008704;28;20041;-71
2022/08/21 04:42:06;;;;;;;1999.90;999.90;;;;;;;18.37;79.84;95452.94;4993140;28;20109;-72
2022/08/21 04:44:31;;;;;;;1999.90;999.90;;;;;;;18.44;79.67;95463.91;4997231;28;20038;-71
2022/08/21 04:46:57;;;;;;;1999.90;999.90;;;;;;;18.40;79.14;95471.09;4991390;28;20022;-72
2022/08/21 04:49:23;;;;;;;1999.90;999.90;;;;;;;18.39;79.20;95466.06;4991571;28;20387;-72
2022/08/21 04:51:49;;;;;;;1999.90;999.90;;;;;;;18.45;79.99;95468.16;5012066;28;20507;-73
2022/08/21 04:54:18;;;;;;;1999.90;999.90;;;;;;;18.50;79.64;95467.13;5011441;28;20026;-72
2022/08/21 04:56:51;;;;;;;1999.90;999.90;;;;;;;18.55;79.81;95468.78;4991111;28;20026;-71
2022/08/21 04:59:31;;;;;;;1999.90;999.90;;;;;;;18.51;79.08;95465.97;4992078;28;20033;-71
2022/08/21 05:01:57;;;;;;;1999.90;999.90;;;;;;;18.55;78.69;95461.47;5010153;28;20022;-73
2022/08/21 05:04:27;;;;;;;1999.90;999.90;;;;;;;18.75;79.10;95461.59;5007825;28;20558;-72
2022/08/21 05:06:57;;;;;;;1999.90;999.90;;;;;;;18.85;79.23;95461.84;4992309;28;20399;-72
2022/08/21 05:09:24;;;;;;;1999.90;999.90;;;;;;;18.88;79.25;95465.75;4991145;28;20029;-72
2022/08/21 05:11:51;;;;;;;1999.90;999.90;;;;;;;18.87;79.09;95464.19;5012466;28;20025;-72
2022/08/21 05:14:16;;;;;;;1999.90;999.90;;;;;;;18.89;79.07;95468.13;5003157;28;20022;-71
2022/08/21 05:16:43;;;;;;;1999.90;999.90;;;;;;;18.91;79.07;95470.47;5004388;28;20099;-73
2022/08/21 05:19:09;;;;;;;1999.90;999.90;;;;;;;18.92;78.94;95467.41;4988730;28;20736;-71
2022/08/21 05:21:35;;;;;;;1999.90;999.90;;;;;;;19.01;78.70;95471.84;5004668;28;20538;-71
2022/08/21 05:24:01;;;;;;;1999.90;999.90;;;;;;;19.00;78.78;95467.59;5010161;28;20057;-71
2022/08/21 05:26:27;;;;;;;1999.90;999.90;;;;;;;19.01;79.03;95458.38;5004176;28;20062;-72
2022/08/21 05:28:52;;;;;;;1999.90;999.90;;;;;;;19.04;79.14;95471.94;4992725;28;20374;-72
2022/08/21 05:31:18;;;;;;;1999.90;999.90;;;;;;;19.11;78.40;95465.94;5009213;28;20033;-72
2022/08/21 05:33:43;;;;;;;1999.90;999.90;;;;;;;19.14;78.75;95478.69;5010321;28;20076;-72
2022/08/21 05:36:08;;;;;;;1999.90;999.90;;;;;;;19.13;79.18;95467.13;4991330;28;20034;-71
2022/08/21 05:38:34;;;;;;;1999.90;999.90;;;;;;;19.15;78.55;95478.34;5012253;28;20037;-72
2022/08/21 05:40:59;;;;;;;1999.90;999.90;;;;;;;19.19;78.78;95465.75;5009160;28;20029;-72
2022/08/21 05:43:25;;;;;;;1999.90;999.90;;;;;;;19.25;78.87;95476.25;5011655;28;20501;-72
2022/08/21 05:45:50;;;;;;;1999.90;999.90;;;;;;;19.30;78.84;95473.28;4998478;28;20029;-72
2022/08/21 05:48:22;;;;;;;1999.90;999.90;;;;;;;19.38;78.95;95483.09;5011759;28;20032;-72
2022/08/21 05:50:49;;;;;;;1999.90;999.90;;;;;;;19.53;78.45;95489.59;4996365;28;20061;-72
2022/08/21 05:53:16;;;;;;;1999.90;999.90;;;;;;;19.58;78.16;95494.72;4992075;28;20109;-72
2022/08/21 05:55:42;;;;;;;1999.90;999.90;;;;;;;19.54;78.69;95491.94;5003634;28;20422;-72
2022/08/21 05:58:08;;;;;;;1999.90;999.90;;;;;;;19.44;79.35;95490.56;5002888;28;20382;-73
2022/08/21 06:00:33;;;;;;;1999.90;999.90;;;;;;;19.52;77.98;95486.13;5009706;28;20030;-72
2022/08/21 06:02:59;;;;;;;1999.90;999.90;;;;;;;19.48;78.82;95487.94;5010120;28;20026;-73
2022/08/21 06:05:25;;;;;;;1999.90;999.90;;;;;;;19.66;78.86;95474.88;4991088;28;20114;-72
2022/08/21 06:07:51;;;;;;;1999.90;999.90;;;;;;;19.77;78.90;95477.78;4990543;28;20022;-72
2022/08/21 06:10:16;;;;;;;1999.90;999.90;;;;;;;19.70;78.45;95473.00;4999666;28;20450;-72
2022/08/21 06:12:41;;;;;;;1999.90;999.90;;;;;;;19.18;78.53;95484.94;5006248;28;20030;-72
2022/08/21 06:15:07;;;;;;;1999.90;999.90;;;;;;;19.72;79.32;95493.13;4990053;28;20496;-73
2022/08/21 06:17:33;;;;;;;1999.90;999.90;;;;;;;19.17;78.95;95486.09;4993753;28;20483;-72
2022/08/21 06:19:58;;;;;;;1999.90;999.90;;;;;;;19.39;79.01;95493.53;4997107;28;20042;-73
2022/08/21 06:22:23;;;;;;;1999.90;999.90;;;;;;;18.94;80.67;95485.94;4995347;28;20032;-72
2022/08/21 06:24:49;;;;;;;1999.90;999.90;;;;;;;19.33;79.47;95496.84;5005422;28;20029;-72
2022/08/21 06:27:15;;;;;;;1999.90;999.90;;;;;;;19.62;79.78;95493.69;4990639;28;20711;-72
2022/08/21 06:29:40;;;;;;;1999.90;999.90;;;;;;;19.81;79.03;95500.22;5002389;28;20128;-72
2022/08/21 06:32:09;;;;;;;1999.90;999.90;;;;;;;19.93;78.13;95478.50;5008879;28;20026;-73
2022/08/21 06:34:39;;;;;;;1999.90;999.90;;;;;;;19.72;78.58;95492.34;5003455;28;20034;-72
2022/08/21 06:37:05;;;;;;;1999.90;999.90;;;;;;;19.92;78.86;95503.94;5011179;28;20368;-73
2022/08/21 06:39:32;;;;;;;1999.90;999.90;;;;;;;19.45;80.51;95497.53;5007551;28;20021;-72
2022/08/21 06:41:57;;;;;;;1999.90;999.90;;;;;;;19.71;79.62;95499.66;5008202;28;20139;-72
2022/08/21 06:44:23;;;;;;;1999.90;999.90;;;;;;;19.43;79.18;95497.09;5000181;28;20463;-72
2022/08/21 06:46:48;;;;;;;1999.90;999.90;;;;;;;19.30;81.01;95482.16;5002426;28;20030;-72
2022/08/21 06:49:13;;;;;;;1999.90;999.90;;;;;;;19.79;80.16;95486.31;4992781;28;20022;-72
2022/08/21 06:51:39;;;;;;;1999.90;999.90;;;;;;;18.96;81.00;95489.06;4991039;28;20042;-72
2022/08/21 06:54:05;;;;;;;1999.90;999.90;;;;;;;18.70;82.16;95487.69;5003584;28;20058;-72
2022/08/21 06:56:30;;;;;;;1999.90;999.90;;;;;;;18.53;83.22;95477.22;4999682;28;20530;-71
2022/08/21 06:58:55;;;;;;;1999.90;999.90;;;;;;;18.66;81.93;95467.13;4989622;28;20740;-73
2022/08/21 07:01:24;;;;;;;1999.90;999.90;;;;;;;19.51;80.62;95486.47;4996621;28;20482;-73
2022/08/21 07:03:49;;;;;;;1999.90;999.90;;;;;;;19.53;81.26;95482.28;4989834;28;20037;-72
2022/08/21 07:06:15;;;;;;;1999.90;999.90;;;;;;;19.79;79.75;95479.00;4989260;28;20026;-71
2022/08/21 07:08:40;;;;;;;1999.90;999.90;;;;;;;20.49;79.42;95480.75;4997196;28;20026;-72
2022/08/21 07:11:14;;;;;;;1999.90;999.90;;;;;;;19.84;78.32;95486.03;4986765;28;20101;-71
2022/08/21 07:13:40;;;;;;;1999.90;999.90;;;;;;;19.22;79.88;95475.81;4989810;28;20116;-73
2022/08/21 07:16:05;;;;;;;1999.90;999.90;;;;;;;19.28;80.96;95478.25;4991128;28;20046;-72
2022/08/21 07:18:31;;;;;;;1999.90;999.90;;;;;;;19.74;79.91;95476.56;4988790;28;20096;-72
2022/08/21 07:20:56;;;;;;;1999.90;999.90;;;;;;;19.56;80.82;95484.28;5001893;28;20029;-73
2022/08/21 07:23:26;;;;;;;1999.90;999.90;;;;;;;19.57;79.16;95474.25;5004995;28;20033;-76
2022/08/21 07:25:51;;;;;;;1999.90;999.90;;;;;;;19.10;79.59;95473.22;4978570;28;20041;-76
2022/08/21 07:28:17;;;;;;;1999.90;999.90;;;;;;;19.37;80.12;95471.53;4990227;28;20034;-76
2022/08/21 07:30:42;;;;;;;1999.90;999.90;;;;;;;20.09;79.29;95459.53;4995089;28;20076;-76
2022/08/21 07:33:07;;;;;;;1999.90;999.90;;;;;;;19.79;78.33;95475.50;5009022;28;20048;-77
2022/08/21 07:35:33;;;;;;;1999.90;999.90;;;;;;;19.25;73.71;95465.47;4991174;28;20019;-76
2022/08/21 07:37:58;;;;;;;1999.90;999.90;;;;;;;19.02;77.09;95460.72;4990548;28;20097;-70
2022/08/21 07:40:24;;;;;;;1999.90;999.90;;;;;;;19.28;78.71;95467.44;5009584;28;20057;-73
2022/08/21 07:42:51;;;;;;;1999.90;999.90;;;;;;;19.52;77.96;95471.84;4972284;28;20120;-72
2022/08/21 07:45:19;;;;;;;1999.90;999.90;;;;;;;19.57;76.80;95469.66;4978742;28;20506;-70
2022/08/21 07:47:44;;;;;;;1999.90;999.90;;;;;;;19.84;77.09;95472.53;4996085;28;20026;-73
2022/08/21 07:50:12;;;;;;;1999.90;999.90;;;;;;;19.41;75.50;95464.31;4987373;28;20104;-76
2022/08/21 07:52:38;;;;;;;1999.90;999.90;;;;;;;20.06;76.71;95463.72;4991157;28;20105;-75
2022/08/21 07:55:04;;;;;;;1999.90;999.90;;;;;;;19.74;75.79;95463.84;4999458;28;20117;-75
2022/08/21 07:57:29;;;;;;;1999.90;999.90;;;;;;;19.79;72.88;95459.31;4997149;28;20096;-74
2022/08/21 07:59:55;;;;;;;1999.90;999.90;;;;;;;20.46;76.55;95462.53;4991923;28;20018;-74
2022/08/21 08:02:25;;;;;;;1999.90;999.90;;;;;;;19.71;74.05;95458.41;4994825;28;20435;-72
2022/08/21 08:04:51;;;;;;;1999.90;999.90;;;;;;;20.03;76.16;95463.66;4996317;28;20487;-72
2022/08/21 08:07:17;;;;;;;1999.90;999.90;;;;;;;19.58;72.22;95455.00;5001050;28;20084;-69
2022/08/21 08:09:43;;;;;;;1999.90;999.90;;;;;;;19.80;76.10;95453.56;4997025;28;20042;-68
2022/08/21 08:12:08;;;;;;;1999.90;999.90;;;;;;;20.09;67.66;95446.03;4994014;28;20049;-71
2022/08/21 08:14:33;;;;;;;1999.90;999.90;;;;;;;20.21;75.51;95446.63;4996093;28;20054;-72
2022/08/21 08:16:59;;;;;;;1999.90;999.90;;;;;;;20.26;70.93;95453.66;4995135;28;20161;-69
2022/08/21 08:19:24;;;;;;;1999.90;999.90;;;;;;;20.26;72.72;95464.47;4996183;28;20023;-72
2022/08/21 08:21:49;;;;;;;1999.90;999.90;;;;;;;20.26;69.26;95456.38;4996398;28;20031;-68
2022/08/21 08:24:16;;;;;;;1999.90;999.90;;;;;;;20.47;74.78;95428.97;4994221;28;20089;-68
2022/08/21 08:26:41;;;;;;;1999.90;999.90;;;;;;;21.08;65.37;95451.59;5002747;28;20065;-68
2022/08/21 08:29:07;;;;;;;1999.90;999.90;;;;;;;20.70;69.62;95443.28;4996181;28;20027;-70
2022/08/21 08:31:33;;;;;;;1999.90;999.90;;;;;;;21.53;73.89;95454.22;4994767;28;20557;-66
2022/08/21 08:33:58;;;;;;;1999.90;999.90;;;;;;;20.46;67.55;95406.59;4996027;28;20023;-69
2022/08/21 08:36:33;;;;;;;1999.90;999.90;;;;;;;20.78;66.06;95452.31;5005463;28;20032;-71
2022/08/21 08:38:58;;;;;;;1999.90;999.90;;;;;;;20.92;66.93;95422.78;5003468;28;20081;-66
2022/08/21 08:41:24;;;;;;;1999.90;999.90;;;;;;;21.65;67.55;95452.41;4996003;28;20030;-71
2022/08/21 08:43:58;;;;;;;1999.90;999.90;;;;;;;21.71;64.65;95432.78;4994603;28;20073;-68
2022/08/21 08:46:44;;;;;;;1999.90;999.90;;;;;;;21.17;63.89;95428.56;5003900;28;20030;-67
2022/08/21 08:49:15;;;;;;;1999.90;999.90;;;;;;;21.21;64.00;95451.03;5015061;28;20117;-74
2022/08/21 08:52:05;;;;;;;1999.90;999.90;;;;;;;21.40;62.62;95455.59;5008854;28;20043;-71
2022/08/21 08:54:49;;;;;;;1999.90;999.90;;;;;;;21.48;65.11;95448.34;4995480;28;20030;-74
2022/08/21 08:57:17;;;;;;;1999.90;999.90;;;;;;;21.55;62.12;95434.91;5008153;28;20030;-73
2022/08/21 08:59:49;;;;;;;1999.90;999.90;;;;;;;21.39;61.88;95450.53;4976628;28;20035;-78
2022/08/21 09:02:15;;;;;;;;;;;;;;;21.64;61.48;95448.16;5008758;28;20050;-69
2022/08/21 09:04:42;;;;;;;1999.90;999.90;;;;;;;22.14;66.39;95446.09;5009757;28;19933;-69
2022/08/21 09:07:50;;;;;;;1999.90;999.90;;;;;;;22.44;63.97;95446.78;5006840;28;20034;-84
2022/08/21 09:10:43;;;;;;;1999.90;999.90;;;;;;;22.01;58.24;95445.53;4997961;28;20022;-75
2022/08/21 09:13:24;;;;;;;1999.90;999.90;;;;;;;21.93;58.08;95443.88;4992161;28;20089;-74
2022/08/21 09:16:07;;;;;;;1999.90;999.90;;;;;;;21.98;60.75;95436.22;5004747;28;20034;-73
2022/08/21 09:18:51;;;;;;;1999.90;999.90;;;;;;;22.15;58.21;95436.78;5009529;28;20035;-74
2022/08/21 09:21:53;;;;;;;1999.90;999.90;;;;;;;21.78;57.93;95440.22;5012726;28;20080;-84
2022/08/21 09:24:43;;;;;;;1999.90;999.90;;;;;;;22.12;58.50;95429.44;5004073;28;20026;-82
2022/08/21 09:27:17;;;;;;;1999.90;999.90;;;;;;;22.33;57.34;95437.00;4992337;28;20113;-77
2022/08/21 09:29:50;;;;;;;1999.90;999.90;;;;;;;22.45;56.52;95434.00;5011149;28;20034;-75
2022/08/21 09:32:18;;;;;;;1999.90;999.90;;;;;;;22.34;57.70;95444.75;5009137;28;20160;-72
2022/08/21 09:34:58;;;;;;;1999.90;999.90;;;;;;;22.60;56.32;95430.28;5011748;28;20388;-76
2022/08/21 09:37:31;;;;;;;1999.90;999.90;;;;;;;22.77;56.01;95429.63;5009957;28;20056;-75
2022/08/21 09:39:57;;;;;;;1999.90;999.90;;;;;;;23.48;55.78;95442.19;5009324;28;20068;-82
2022/08/21 09:42:27;;;;;;;1999.90;999.90;;;;;;;23.31;54.80;95430.84;5010098;28;20364;-79
2022/08/21 09:45:10;;;;;;;1999.90;999.90;;;;;;;23.41;54.99;95425.84;5011547;28;20030;-74
2022/08/21 09:47:36;;;;;;;1999.90;999.90;;;;;;;24.02;53.08;95425.00;4971623;28;20027;-72
2022/08/21 09:50:14;;;;;;;1999.90;999.90;;;;;;;24.30;53.54;95431.66;4971579;28;20030;-75
2022/08/21 09:52:47;;;;;;;1999.90;999.90;;;;;;;24.15;58.69;95427.34;4972792;28;20038;-73
2022/08/21 09:58:05;;;;;;;;;;;;;;;24.47;52.89;95422.81;4993223;28;20506;-74
2022/08/21 10:00:33;;;;;;;1999.90;999.90;;;;;;;24.51;51.35;95425.50;4991796;28;19970;-77
2022/08/21 10:03:15;;;;;;;1999.90;999.90;;;;;;;25.67;56.04;95418.44;5003535;28;20072;-76
2022/08/21 10:05:58;;;;;;;1999.90;999.90;;;;;;;26.15;53.94;95417.06;4992230;28;20030;-79
2022/08/21 10:08:25;;;;;;;1999.90;999.90;;;;;;;24.91;52.75;95418.94;4989972;28;20086;-71
2022/08/21 10:10:55;;;;;;;1999.90;999.90;;;;;;;24.73;55.51;95421.66;5005628;28;20065;-74
2022/08/21 10:13:34;;;;;;;1999.90;999.90;;;;;;;24.95;52.12;95418.94;4996220;28;20073;-76
2022/08/21 10:16:15;;;;;;;1999.90;999.90;;;;;;;25.06;51.80;95414.25;4990797;28;20041;-74
2022/08/21 10:18:46;;;;;;;1999.90;999.90;;;;;;;25.60;51.00;95412.25;5006734;28;20030;-72
2022/08/21 10:21:26;;;;;;;1999.90;999.90;;;;;;;25.14;53.81;95410.41;4998566;28;20021;-72
2022/08/21 10:23:58;;;;;;;1999.90;999.90;;;;;;;24.55;52.03;95418.13;5011529;28;20101;-78
2022/08/21 10:26:30;;;;;;;;;;;;;;;24.78;52.52;95412.34;4994473;28;20080;-75
2022/08/21 10:29:15;;;;;;;1999.90;999.90;;;;;;;24.87;57.63;95426.31;5006590;28;19956;-77
2022/08/21 10:31:54;;;;;;;1999.90;999.90;;;;;;;24.18;54.55;95416.50;4987623;28;20109;-74
2022/08/21 10:34:54;;;;;;;1999.90;999.90;;;;;;;24.62;56.05;95423.59;4980169;28;20026;-77
2022/08/21 10:37:46;;;;;;;1999.90;999.90;;;;;;;24.45;53.46;95421.63;4978292;28;20069;-77
2022/08/21 10:40:15;;;;;;;;;;;;;;;24.54;51.39;95406.50;4977765;28;20133;-75
2022/08/21 10:42:59;;;;;;;1999.90;999.90;;;;;;;25.59;51.98;95408.75;5006738;28;19914;-77
2022/08/21 10:45:42;;;;;;;1999.90;999.90;;;;;;;25.45;48.82;95411.50;4988209;28;20034;-76
2022/08/21 10:48:19;;;;;;;1999.90;999.90;;;;;;;25.99;46.81;95401.19;4971542;28;20550;-79
2022/08/21 10:50:51;;;;;;;1999.90;999.90;;;;;;;25.60;49.90;95396.66;4980667;28;20034;-77
2022/08/21 10:53:32;;;;;;;1999.90;999.90;;;;;;;26.38;50.10;95400.22;4991102;28;20034;-78
2022/08/21 10:56:04;;;;;;;1999.90;999.90;;;;;;;25.17;49.20;95398.72;4998762;28;20105;-77
2022/08/21 10:58:36;;;;;;;1999.90;999.90;;;;;;;25.23;51.43;95388.97;5009392;28;20022;-78
2022/08/21 11:01:35;;;;;;;1999.90;999.90;;;;;;;24.93;54.21;95392.13;4986963;28;20522;-76
2022/08/21 11:04:31;;;;;;;1999.90;999.90;;;;;;;25.41;53.05;95387.00;4976684;28;20056;-77